sensor_id;sensor_type;location;lat;lon;timestamp;temperature;humidity
9107;DHT22;4589;48.690;8.952;2023-07-29T00:04:43;15.90;99.90
9107;DHT22;4589;48.690;8.952;2023-07-29T00:07:09;15.90;99.90
9107;DHT22;4589;48.690;8.952;2023-07-29T00:14:26;15.90;99.90
9107;DHT22;4589;48.690;8.952;2023-07-29T00:19:18;15.90;99.90
9107;DHT22;4589;48.690;8.952;2023-07-29T00:31:29;15.80;99.90
9107;DHT22;4589;48.690;8.952;2023-07-29T00:33:54;15.80;99.90
9107;DHT22;4589;48.690;8.952;2023-07-29T00:36:20;15.80;99.90
9107;DHT22;4589;48.690;8.952;2023-07-29T00:38:46;15.80;99.90
9107;DHT22;4589;48.690;8.952;2023-07-29T00:43:38;15.80;99.90
9107;DHT22;4589;48.690;8.952;2023-07-29T00:48:30;15.80;99.90
9107;DHT22;4589;48.690;8.952;2023-07-29T00:55:48;15.70;99.90
9107;DHT22;4589;48.690;8.952;2023-07-29T00:58:14;15.70;99.90
9107;DHT22;4589;48.690;8.952;2023-07-29T01:03:06;15.70;99.90
9107;DHT22;4589;48.690;8.952;2023-07-29T01:05:40;15.70;99.90
9107;DHT22;4589;48.690;8.952;2023-07-29T01:08:24;15.70;99.90
9107;DHT22;4589;48.690;8.952;2023-07-29T01:11:41;15.70;99.90
9107;DHT22;4589;48.690;8.952;2023-07-29T01:14:04;15.60;99.90
9107;DHT22;4589;48.690;8.952;2023-07-29T01:16:39;15.60;99.90
9107;DHT22;4589;48.690;8.952;2023-07-29T01:19:06;15.60;99.90
9107;DHT22;4589;48.690;8.952;2023-07-29T01:21:35;15.60;99.90
9107;DHT22;4589;48.690;8.952;2023-07-29T01:24:00;15.60;99.90
9107;DHT22;4589;48.690;8.952;2023-07-29T01:26:26;15.50;99.90
9107;DHT22;4589;48.690;8.952;2023-07-29T01:31:32;15.50;99.90
9107;DHT22;4589;48.690;8.952;2023-07-29T01:34:10;15.50;99.90
9107;DHT22;4589;48.690;8.952;2023-07-29T01:36:39;15.50;99.90
9107;DHT22;4589;48.690;8.952;2023-07-29T01:41:34;15.50;99.90
9107;DHT22;4589;48.690;8.952;2023-07-29T01:44:01;15.50;99.90
9107;DHT22;4589;48.690;8.952;2023-07-29T01:53:46;15.50;99.90
9107;DHT22;4589;48.690;8.952;2023-07-29T01:56:11;15.40;99.90
9107;DHT22;4589;48.690;8.952;2023-07-29T02:08:21;15.30;99.90
9107;DHT22;4589;48.690;8.952;2023-07-29T02:10:47;15.20;99.90
9107;DHT22;4589;48.690;8.952;2023-07-29T02:32:42;15.10;99.90
9107;DHT22;4589;48.690;8.952;2023-07-29T02:35:08;15.10;99.90
9107;DHT22;4589;48.690;8.952;2023-07-29T02:37:33;15.20;99.90
9107;DHT22;4589;48.690;8.952;2023-07-29T02:39:59;15.20;99.90
9107;DHT22;4589;48.690;8.952;2023-07-29T02:42:25;15.20;99.90
9107;DHT22;4589;48.690;8.952;2023-07-29T02:47:18;15.30;99.90
9107;DHT22;4589;48.690;8.952;2023-07-29T02:54:35;15.30;99.90
9107;DHT22;4589;48.690;8.952;2023-07-29T02:57:01;15.30;99.90
9107;DHT22;4589;48.690;8.952;2023-07-29T02:59:26;15.40;99.90
9107;DHT22;4589;48.690;8.952;2023-07-29T03:04:19;15.50;99.90
9107;DHT22;4589;48.690;8.952;2023-07-29T03:14:02;15.60;99.90
9107;DHT22;4589;48.690;8.952;2023-07-29T03:16:28;15.60;99.90
9107;DHT22;4589;48.690;8.952;2023-07-29T03:18:54;15.60;99.90
9107;DHT22;4589;48.690;8.952;2023-07-29T03:23:45;15.70;99.90
9107;DHT22;4589;48.690;8.952;2023-07-29T03:28:39;15.70;99.90
9107;DHT22;4589;48.690;8.952;2023-07-29T03:40:50;15.70;99.90
9107;DHT22;4589;48.690;8.952;2023-07-29T03:50:35;15.80;99.90
9107;DHT22;4589;48.690;8.952;2023-07-29T03:53:02;15.80;99.90
9107;DHT22;4589;48.690;8.952;2023-07-29T03:57:58;15.80;99.90
9107;DHT22;4589;48.690;8.952;2023-07-29T04:00:24;15.80;99.90
9107;DHT22;4589;48.690;8.952;2023-07-29T04:05:16;15.90;99.90
9107;DHT22;4589;48.690;8.952;2023-07-29T04:10:08;15.80;99.90
9107;DHT22;4589;48.690;8.952;2023-07-29T04:12:34;15.80;99.90
9107;DHT22;4589;48.690;8.952;2023-07-29T04:15:00;15.80;99.90
9107;DHT22;4589;48.690;8.952;2023-07-29T04:24:43;15.80;99.90
9107;DHT22;4589;48.690;8.952;2023-07-29T04:27:09;15.80;99.90
9107;DHT22;4589;48.690;8.952;2023-07-29T04:29:36;15.80;99.90
9107;DHT22;4589;48.690;8.952;2023-07-29T04:32:05;15.80;99.90
9107;DHT22;4589;48.690;8.952;2023-07-29T04:34:31;15.80;99.90
9107;DHT22;4589;48.690;8.952;2023-07-29T04:36:57;15.80;99.90
9107;DHT22;4589;48.690;8.952;2023-07-29T04:39:23;15.80;99.90
9107;DHT22;4589;48.690;8.952;2023-07-29T04:56:25;15.70;99.90
9107;DHT22;4589;48.690;8.952;2023-07-29T04:58:51;15.80;99.90
9107;DHT22;4589;48.690;8.952;2023-07-29T05:01:16;15.80;99.90
9107;DHT22;4589;48.690;8.952;2023-07-29T05:03:42;15.80;99.90
9107;DHT22;4589;48.690;8.952;2023-07-29T05:23:10;16.10;99.90
9107;DHT22;4589;48.690;8.952;2023-07-29T05:25:35;16.10;99.90
9107;DHT22;4589;48.690;8.952;2023-07-29T05:28:01;16.30;99.90
9107;DHT22;4589;48.690;8.952;2023-07-29T05:30:28;16.40;99.90
9107;DHT22;4589;48.690;8.952;2023-07-29T05:32:57;16.40;99.90
9107;DHT22;4589;48.690;8.952;2023-07-29T05:35:22;16.50;99.90
9107;DHT22;4589;48.690;8.952;2023-07-29T05:37:48;16.60;99.90
9107;DHT22;4589;48.690;8.952;2023-07-29T05:42:40;16.70;99.90
9107;DHT22;4589;48.690;8.952;2023-07-29T05:45:06;16.90;99.90
9107;DHT22;4589;48.690;8.952;2023-07-29T05:47:32;17.00;99.90
9107;DHT22;4589;48.690;8.952;2023-07-29T05:52:24;17.20;99.90
9107;DHT22;4589;48.690;8.952;2023-07-29T05:57:15;17.40;99.90
9107;DHT22;4589;48.690;8.952;2023-07-29T05:59:41;17.40;99.90
9107;DHT22;4589;48.690;8.952;2023-07-29T06:04:32;17.50;99.90
9107;DHT22;4589;48.690;8.952;2023-07-29T06:14:19;17.90;99.90
9107;DHT22;4589;48.690;8.952;2023-07-29T06:24:02;18.40;99.90
9107;DHT22;4589;48.690;8.952;2023-07-29T06:26:28;18.30;99.90
9107;DHT22;4589;48.690;8.952;2023-07-29T06:28:54;18.20;99.90
9107;DHT22;4589;48.690;8.952;2023-07-29T06:31:19;18.10;99.90
9107;DHT22;4589;48.690;8.952;2023-07-29T06:33:45;18.10;99.90
9107;DHT22;4589;48.690;8.952;2023-07-29T06:41:04;17.90;99.90
9107;DHT22;4589;48.690;8.952;2023-07-29T06:45:56;17.60;99.90
9107;DHT22;4589;48.690;8.952;2023-07-29T06:50:49;17.50;99.90
9107;DHT22;4589;48.690;8.952;2023-07-29T06:53:16;17.50;99.90
9107;DHT22;4589;48.690;8.952;2023-07-29T06:55:42;17.50;99.90
9107;DHT22;4589;48.690;8.952;2023-07-29T07:00:33;17.30;99.90
9107;DHT22;4589;48.690;8.952;2023-07-29T07:05:25;17.20;99.90
9107;DHT22;4589;48.690;8.952;2023-07-29T07:10:17;17.20;99.90
9107;DHT22;4589;48.690;8.952;2023-07-29T07:12:42;17.30;99.90
9107;DHT22;4589;48.690;8.952;2023-07-29T07:15:08;17.20;99.90
9107;DHT22;4589;48.690;8.952;2023-07-29T07:17:34;17.10;99.90
9107;DHT22;4589;48.690;8.952;2023-07-29T07:20:00;17.20;99.90
9107;DHT22;4589;48.690;8.952;2023-07-29T07:24:51;17.20;99.90
9107;DHT22;4589;48.690;8.952;2023-07-29T07:27:17;17.30;99.90
9107;DHT22;4589;48.690;8.952;2023-07-29T07:29:43;17.40;99.90
9107;DHT22;4589;48.690;8.952;2023-07-29T07:39:26;17.60;99.90
9107;DHT22;4589;48.690;8.952;2023-07-29T07:44:18;17.90;99.90
9107;DHT22;4589;48.690;8.952;2023-07-29T07:46:45;18.20;99.90
9107;DHT22;4589;48.690;8.952;2023-07-29T07:51:38;18.40;99.90
9107;DHT22;4589;48.690;8.952;2023-07-29T07:54:04;18.50;99.90
9107;DHT22;4589;48.690;8.952;2023-07-29T07:56:30;18.50;99.90
9107;DHT22;4589;48.690;8.952;2023-07-29T08:08:39;19.40;99.90
9107;DHT22;4589;48.690;8.952;2023-07-29T08:11:05;19.40;99.90
9107;DHT22;4589;48.690;8.952;2023-07-29T08:13:31;19.40;99.90
9107;DHT22;4589;48.690;8.952;2023-07-29T08:18:22;19.60;99.90
9107;DHT22;4589;48.690;8.952;2023-07-29T08:20:55;19.60;99.90
9107;DHT22;4589;48.690;8.952;2023-07-29T08:23:27;19.70;99.90
9107;DHT22;4589;48.690;8.952;2023-07-29T08:25:58;20.10;99.90
9107;DHT22;4589;48.690;8.952;2023-07-29T08:28:35;20.70;99.90
9107;DHT22;4589;48.690;8.952;2023-07-29T08:33:28;21.40;99.90
9107;DHT22;4589;48.690;8.952;2023-07-29T08:35:55;21.60;99.90
9107;DHT22;4589;48.690;8.952;2023-07-29T08:38:21;21.80;99.90
9107;DHT22;4589;48.690;8.952;2023-07-29T08:41:10;21.80;99.90
9107;DHT22;4589;48.690;8.952;2023-07-29T08:43:39;21.90;99.90
9107;DHT22;4589;48.690;8.952;2023-07-29T08:46:08;22.50;99.90
9107;DHT22;4589;48.690;8.952;2023-07-29T08:48:41;22.40;99.90
9107;DHT22;4589;48.690;8.952;2023-07-29T08:51:08;22.50;99.90
9107;DHT22;4589;48.690;8.952;2023-07-29T08:53:35;22.40;99.90
9107;DHT22;4589;48.690;8.952;2023-07-29T08:56:01;22.40;99.90
9107;DHT22;4589;48.690;8.952;2023-07-29T08:58:27;22.20;99.90
9107;DHT22;4589;48.690;8.952;2023-07-29T09:00:53;22.60;99.90
9107;DHT22;4589;48.690;8.952;2023-07-29T09:03:20;23.30;99.90
9107;DHT22;4589;48.690;8.952;2023-07-29T09:05:46;23.70;99.90
9107;DHT22;4589;48.690;8.952;2023-07-29T09:08:12;24.10;99.90
9107;DHT22;4589;48.690;8.952;2023-07-29T09:10:37;24.70;99.90
9107;DHT22;4589;48.690;8.952;2023-07-29T09:13:07;25.60;99.90
9107;DHT22;4589;48.690;8.952;2023-07-29T09:15:34;26.00;99.90
9107;DHT22;4589;48.690;8.952;2023-07-29T09:18:12;26.80;99.90
9107;DHT22;4589;48.690;8.952;2023-07-29T09:20:40;26.70;99.90
9107;DHT22;4589;48.690;8.952;2023-07-29T09:23:08;26.20;99.90
9107;DHT22;4589;48.690;8.952;2023-07-29T09:25:34;25.70;99.90
9107;DHT22;4589;48.690;8.952;2023-07-29T09:28:01;25.30;99.90
9107;DHT22;4589;48.690;8.952;2023-07-29T09:30:32;24.90;99.90
9107;DHT22;4589;48.690;8.952;2023-07-29T09:32:58;24.80;99.90
9107;DHT22;4589;48.690;8.952;2023-07-29T09:35:27;24.90;99.90
9107;DHT22;4589;48.690;8.952;2023-07-29T09:37:53;24.90;99.90
9107;DHT22;4589;48.690;8.952;2023-07-29T09:40:18;26.20;99.90
9107;DHT22;4589;48.690;8.952;2023-07-29T09:42:49;26.30;99.90
9107;DHT22;4589;48.690;8.952;2023-07-29T09:45:26;26.30;99.90
9107;DHT22;4589;48.690;8.952;2023-07-29T09:47:53;26.20;99.90
9107;DHT22;4589;48.690;8.952;2023-07-29T09:50:20;26.40;99.90
9107;DHT22;4589;48.690;8.952;2023-07-29T09:55:17;27.60;99.90
9107;DHT22;4589;48.690;8.952;2023-07-29T09:57:43;27.40;99.90
9107;DHT22;4589;48.690;8.952;2023-07-29T10:00:11;27.20;99.90
9107;DHT22;4589;48.690;8.952;2023-07-29T10:02:41;26.70;99.90
9107;DHT22;4589;48.690;8.952;2023-07-29T10:05:08;26.90;99.90
9107;DHT22;4589;48.690;8.952;2023-07-29T10:07:38;26.80;99.90
9107;DHT22;4589;48.690;8.952;2023-07-29T10:10:04;26.50;99.90
9107;DHT22;4589;48.690;8.952;2023-07-29T10:12:31;26.00;99.90
9107;DHT22;4589;48.690;8.952;2023-07-29T10:15:05;25.70;99.90
9107;DHT22;4589;48.690;8.952;2023-07-29T10:17:35;26.00;99.90
9107;DHT22;4589;48.690;8.952;2023-07-29T10:20:01;26.80;99.90
9107;DHT22;4589;48.690;8.952;2023-07-29T10:22:33;28.10;99.90
9107;DHT22;4589;48.690;8.952;2023-07-29T10:25:04;29.10;99.90
9107;DHT22;4589;48.690;8.952;2023-07-29T10:27:53;29.40;99.90
9107;DHT22;4589;48.690;8.952;2023-07-29T10:30:20;29.80;99.90
9107;DHT22;4589;48.690;8.952;2023-07-29T10:32:47;29.30;99.90
9107;DHT22;4589;48.690;8.952;2023-07-29T10:35:14;29.00;99.90
9107;DHT22;4589;48.690;8.952;2023-07-29T10:37:41;28.50;99.90
9107;DHT22;4589;48.690;8.952;2023-07-29T10:40:09;27.60;99.90
9107;DHT22;4589;48.690;8.952;2023-07-29T10:42:36;26.70;99.90
9107;DHT22;4589;48.690;8.952;2023-07-29T10:45:20;27.00;99.90
9107;DHT22;4589;48.690;8.952;2023-07-29T10:47:47;27.20;99.90
9107;DHT22;4589;48.690;8.952;2023-07-29T10:50:21;27.40;99.90
9107;DHT22;4589;48.690;8.952;2023-07-29T10:52:51;27.30;99.90
9107;DHT22;4589;48.690;8.952;2023-07-29T10:55:26;27.10;99.90
9107;DHT22;4589;48.690;8.952;2023-07-29T10:57:52;27.60;99.90
9107;DHT22;4589;48.690;8.952;2023-07-29T11:00:20;27.80;99.90
9107;DHT22;4589;48.690;8.952;2023-07-29T11:03:07;27.60;99.90
9107;DHT22;4589;48.690;8.952;2023-07-29T11:05:53;27.40;99.90
9107;DHT22;4589;48.690;8.952;2023-07-29T11:08:26;27.00;99.90
9107;DHT22;4589;48.690;8.952;2023-07-29T11:11:12;26.90;99.90
9107;DHT22;4589;48.690;8.952;2023-07-29T11:13:38;26.90;99.90
9107;DHT22;4589;48.690;8.952;2023-07-29T11:16:05;26.90;99.90
9107;DHT22;4589;48.690;8.952;2023-07-29T11:18:35;26.90;99.90
9107;DHT22;4589;48.690;8.952;2023-07-29T11:21:02;27.60;99.90
9107;DHT22;4589;48.690;8.952;2023-07-29T11:23:30;27.80;99.90
9107;DHT22;4589;48.690;8.952;2023-07-29T11:25:56;27.80;99.90
9107;DHT22;4589;48.690;8.952;2023-07-29T11:28:22;27.90;99.90
9107;DHT22;4589;48.690;8.952;2023-07-29T11:30:49;28.00;99.90
9107;DHT22;4589;48.690;8.952;2023-07-29T11:33:19;27.90;99.90
9107;DHT22;4589;48.690;8.952;2023-07-29T11:35:45;28.20;99.90
9107;DHT22;4589;48.690;8.952;2023-07-29T11:38:15;29.00;99.90
9107;DHT22;4589;48.690;8.952;2023-07-29T11:45:33;29.00;99.90
9107;DHT22;4589;48.690;8.952;2023-07-29T11:48:01;28.80;99.90
9107;DHT22;4589;48.690;8.952;2023-07-29T11:50:27;29.20;99.90
9107;DHT22;4589;48.690;8.952;2023-07-29T11:52:52;29.80;99.90
9107;DHT22;4589;48.690;8.952;2023-07-29T11:55:18;30.20;99.90
9107;DHT22;4589;48.690;8.952;2023-07-29T11:57:46;30.50;99.90
9107;DHT22;4589;48.690;8.952;2023-07-29T12:00:14;30.80;99.00
9107;DHT22;4589;48.690;8.952;2023-07-29T12:02:42;30.70;95.50
9107;DHT22;4589;48.690;8.952;2023-07-29T12:05:10;29.10;97.60
9107;DHT22;4589;48.690;8.952;2023-07-29T12:07:37;29.10;99.90
9107;DHT22;4589;48.690;8.952;2023-07-29T12:10:04;29.00;96.70
9107;DHT22;4589;48.690;8.952;2023-07-29T12:12:29;29.30;97.00
9107;DHT22;4589;48.690;8.952;2023-07-29T12:14:55;29.30;98.40
9107;DHT22;4589;48.690;8.952;2023-07-29T12:17:21;30.00;99.40
9107;DHT22;4589;48.690;8.952;2023-07-29T12:19:46;30.10;98.90
9107;DHT22;4589;48.690;8.952;2023-07-29T12:22:17;30.30;98.60
9107;DHT22;4589;48.690;8.952;2023-07-29T12:24:42;29.80;99.90
9107;DHT22;4589;48.690;8.952;2023-07-29T12:27:13;29.30;99.90
9107;DHT22;4589;48.690;8.952;2023-07-29T12:29:43;29.10;99.90
9107;DHT22;4589;48.690;8.952;2023-07-29T12:32:09;28.80;99.90
9107;DHT22;4589;48.690;8.952;2023-07-29T12:34:37;28.60;99.90
9107;DHT22;4589;48.690;8.952;2023-07-29T12:37:04;28.80;99.90
9107;DHT22;4589;48.690;8.952;2023-07-29T12:39:33;29.70;99.90
9107;DHT22;4589;48.690;8.952;2023-07-29T12:41:59;29.80;98.10
9107;DHT22;4589;48.690;8.952;2023-07-29T12:44:29;29.40;97.00
9107;DHT22;4589;48.690;8.952;2023-07-29T12:46:55;29.50;99.90
9107;DHT22;4589;48.690;8.952;2023-07-29T12:49:20;29.60;99.40
9107;DHT22;4589;48.690;8.952;2023-07-29T12:51:47;29.40;98.30
9107;DHT22;4589;48.690;8.952;2023-07-29T12:54:13;29.40;98.80
9107;DHT22;4589;48.690;8.952;2023-07-29T12:56:39;29.30;99.30
9107;DHT22;4589;48.690;8.952;2023-07-29T12:59:05;29.10;99.90
9107;DHT22;4589;48.690;8.952;2023-07-29T13:01:30;29.30;99.90
9107;DHT22;4589;48.690;8.952;2023-07-29T13:03:56;29.40;99.90
9107;DHT22;4589;48.690;8.952;2023-07-29T13:06:22;29.30;98.60
9107;DHT22;4589;48.690;8.952;2023-07-29T13:08:48;29.10;99.90
9107;DHT22;4589;48.690;8.952;2023-07-29T13:11:17;28.40;97.30
9107;DHT22;4589;48.690;8.952;2023-07-29T13:13:43;28.00;98.00
9107;DHT22;4589;48.690;8.952;2023-07-29T13:16:09;28.00;98.00
9107;DHT22;4589;48.690;8.952;2023-07-29T13:18:35;27.50;98.60
9107;DHT22;4589;48.690;8.952;2023-07-29T13:21:00;27.20;98.40
9107;DHT22;4589;48.690;8.952;2023-07-29T13:23:26;26.90;99.90
9107;DHT22;4589;48.690;8.952;2023-07-29T13:25:52;27.20;99.90
9107;DHT22;4589;48.690;8.952;2023-07-29T13:30:44;26.90;99.90
9107;DHT22;4589;48.690;8.952;2023-07-29T13:35:36;27.00;99.90
9107;DHT22;4589;48.690;8.952;2023-07-29T13:38:02;27.20;99.90
9107;DHT22;4589;48.690;8.952;2023-07-29T13:40:28;27.40;99.90
9107;DHT22;4589;48.690;8.952;2023-07-29T13:42:54;27.30;99.90
9107;DHT22;4589;48.690;8.952;2023-07-29T13:45:20;27.00;99.20
9107;DHT22;4589;48.690;8.952;2023-07-29T13:47:46;26.70;99.90
9107;DHT22;4589;48.690;8.952;2023-07-29T13:50:12;26.30;98.80
9107;DHT22;4589;48.690;8.952;2023-07-29T13:52:38;26.20;98.50
9107;DHT22;4589;48.690;8.952;2023-07-29T13:55:04;26.10;99.80
9107;DHT22;4589;48.690;8.952;2023-07-29T13:57:30;26.00;97.70
9107;DHT22;4589;48.690;8.952;2023-07-29T13:59:56;26.10;99.90
9107;DHT22;4589;48.690;8.952;2023-07-29T14:02:22;26.00;98.10
9107;DHT22;4589;48.690;8.952;2023-07-29T14:04:47;25.90;99.10
9107;DHT22;4589;48.690;8.952;2023-07-29T14:07:13;25.90;99.90
9107;DHT22;4589;48.690;8.952;2023-07-29T14:09:38;25.80;99.50
9107;DHT22;4589;48.690;8.952;2023-07-29T14:12:04;25.70;98.50
9107;DHT22;4589;48.690;8.952;2023-07-29T14:14:31;25.80;99.90
9107;DHT22;4589;48.690;8.952;2023-07-29T14:16:56;25.90;99.90
9107;DHT22;4589;48.690;8.952;2023-07-29T14:19:23;26.10;99.90
9107;DHT22;4589;48.690;8.952;2023-07-29T14:21:48;26.20;99.90
9107;DHT22;4589;48.690;8.952;2023-07-29T14:24:14;26.40;99.60
9107;DHT22;4589;48.690;8.952;2023-07-29T14:31:32;26.20;98.70
9107;DHT22;4589;48.690;8.952;2023-07-29T14:33:58;26.30;99.50
9107;DHT22;4589;48.690;8.952;2023-07-29T14:36:24;26.10;99.20
9107;DHT22;4589;48.690;8.952;2023-07-29T14:41:16;25.70;98.40
9107;DHT22;4589;48.690;8.952;2023-07-29T14:43:41;25.60;99.90
9107;DHT22;4589;48.690;8.952;2023-07-29T14:50:59;25.50;99.90
9107;DHT22;4589;48.690;8.952;2023-07-29T14:53:25;25.60;99.90
9107;DHT22;4589;48.690;8.952;2023-07-29T14:55:51;25.60;99.60
9107;DHT22;4589;48.690;8.952;2023-07-29T14:58:16;25.60;99.70
9107;DHT22;4589;48.690;8.952;2023-07-29T15:00:42;25.40;98.70
9107;DHT22;4589;48.690;8.952;2023-07-29T15:03:08;25.30;99.90
9107;DHT22;4589;48.690;8.952;2023-07-29T15:05:33;25.40;99.90
9107;DHT22;4589;48.690;8.952;2023-07-29T15:07:59;25.60;99.90
9107;DHT22;4589;48.690;8.952;2023-07-29T15:12:51;25.70;99.90
9107;DHT22;4589;48.690;8.952;2023-07-29T15:15:17;25.70;99.90
9107;DHT22;4589;48.690;8.952;2023-07-29T15:25:01;25.30;99.90
9107;DHT22;4589;48.690;8.952;2023-07-29T15:27:27;25.30;99.90
9107;DHT22;4589;48.690;8.952;2023-07-29T15:32:19;25.70;99.90
9107;DHT22;4589;48.690;8.952;2023-07-29T15:34:45;25.80;99.90
9107;DHT22;4589;48.690;8.952;2023-07-29T15:37:12;25.70;99.80
9107;DHT22;4589;48.690;8.952;2023-07-29T15:39:37;25.50;99.90
9107;DHT22;4589;48.690;8.952;2023-07-29T15:42:03;25.50;99.20
9107;DHT22;4589;48.690;8.952;2023-07-29T15:44:29;25.30;98.90
9107;DHT22;4589;48.690;8.952;2023-07-29T15:46:54;25.20;99.90
9107;DHT22;4589;48.690;8.952;2023-07-29T15:49:22;25.10;99.90
9107;DHT22;4589;48.690;8.952;2023-07-29T15:51:48;25.00;99.90
9107;DHT22;4589;48.690;8.952;2023-07-29T15:54:14;25.00;99.90
9107;DHT22;4589;48.690;8.952;2023-07-29T15:56:39;25.10;99.90
9107;DHT22;4589;48.690;8.952;2023-07-29T15:59:06;25.10;99.90
9107;DHT22;4589;48.690;8.952;2023-07-29T16:03:58;25.10;99.90
9107;DHT22;4589;48.690;8.952;2023-07-29T16:06:25;25.00;99.80
9107;DHT22;4589;48.690;8.952;2023-07-29T16:08:52;25.10;99.90
9107;DHT22;4589;48.690;8.952;2023-07-29T16:13:44;25.10;99.90
9107;DHT22;4589;48.690;8.952;2023-07-29T16:16:10;25.20;99.40
9107;DHT22;4589;48.690;8.952;2023-07-29T16:18:35;25.10;99.90
9107;DHT22;4589;48.690;8.952;2023-07-29T16:23:28;25.00;99.90
9107;DHT22;4589;48.690;8.952;2023-07-29T16:25:54;24.90;99.90
9107;DHT22;4589;48.690;8.952;2023-07-29T16:30:45;24.60;99.90
9107;DHT22;4589;48.690;8.952;2023-07-29T16:33:11;24.70;99.90
9107;DHT22;4589;48.690;8.952;2023-07-29T16:35:37;24.60;99.90
9107;DHT22;4589;48.690;8.952;2023-07-29T16:38:02;24.50;99.90
9107;DHT22;4589;48.690;8.952;2023-07-29T16:40:28;24.60;99.90
9107;DHT22;4589;48.690;8.952;2023-07-29T16:42:54;24.70;99.90
9107;DHT22;4589;48.690;8.952;2023-07-29T16:45:21;24.70;99.90
9107;DHT22;4589;48.690;8.952;2023-07-29T16:47:47;24.60;99.90
9107;DHT22;4589;48.690;8.952;2023-07-29T16:55:06;24.20;99.90
9107;DHT22;4589;48.690;8.952;2023-07-29T16:57:32;24.10;99.90
9107;DHT22;4589;48.690;8.952;2023-07-29T16:59:57;23.90;99.90
9107;DHT22;4589;48.690;8.952;2023-07-29T17:12:11;18.70;99.90
9107;DHT22;4589;48.690;8.952;2023-07-29T17:14:37;18.00;99.90
9107;DHT22;4589;48.690;8.952;2023-07-29T17:17:02;17.80;99.90
9107;DHT22;4589;48.690;8.952;2023-07-29T17:36:34;18.30;99.90
9107;DHT22;4589;48.690;8.952;2023-07-29T17:39:00;18.40;99.90
9107;DHT22;4589;48.690;8.952;2023-07-29T17:41:25;18.50;99.90
9107;DHT22;4589;48.690;8.952;2023-07-29T17:48:44;18.30;99.90
9107;DHT22;4589;48.690;8.952;2023-07-29T17:51:10;18.20;99.90
9107;DHT22;4589;48.690;8.952;2023-07-29T17:53:36;18.10;99.90
9107;DHT22;4589;48.690;8.952;2023-07-29T18:00:53;17.90;99.90
9107;DHT22;4589;48.690;8.952;2023-07-29T18:08:13;17.70;99.90
9107;DHT22;4589;48.690;8.952;2023-07-29T18:10:40;17.80;99.90
9107;DHT22;4589;48.690;8.952;2023-07-29T18:13:06;17.80;99.90
9107;DHT22;4589;48.690;8.952;2023-07-29T18:15:32;17.90;99.90
9107;DHT22;4589;48.690;8.952;2023-07-29T18:17:57;17.90;99.90
9107;DHT22;4589;48.690;8.952;2023-07-29T18:20:23;17.90;99.90
9107;DHT22;4589;48.690;8.952;2023-07-29T18:22:48;18.00;99.90
9107;DHT22;4589;48.690;8.952;2023-07-29T18:25:15;18.00;99.90
9107;DHT22;4589;48.690;8.952;2023-07-29T18:27:40;18.00;99.90
9107;DHT22;4589;48.690;8.952;2023-07-29T18:30:06;17.90;99.90
9107;DHT22;4589;48.690;8.952;2023-07-29T18:32:32;17.90;99.90
9107;DHT22;4589;48.690;8.952;2023-07-29T18:34:58;17.90;99.90
9107;DHT22;4589;48.690;8.952;2023-07-29T18:37:23;17.80;99.90
9107;DHT22;4589;48.690;8.952;2023-07-29T18:39:49;17.80;99.90
9107;DHT22;4589;48.690;8.952;2023-07-29T18:42:15;17.80;99.90
9107;DHT22;4589;48.690;8.952;2023-07-29T18:47:09;17.70;99.90
9107;DHT22;4589;48.690;8.952;2023-07-29T18:49:35;17.70;99.90
9107;DHT22;4589;48.690;8.952;2023-07-29T18:52:01;17.70;99.90
9107;DHT22;4589;48.690;8.952;2023-07-29T18:56:52;17.70;99.90
9107;DHT22;4589;48.690;8.952;2023-07-29T19:01:47;17.60;99.90
9107;DHT22;4589;48.690;8.952;2023-07-29T19:04:13;17.70;99.90
9107;DHT22;4589;48.690;8.952;2023-07-29T19:06:39;17.70;99.90
9107;DHT22;4589;48.690;8.952;2023-07-29T19:11:31;17.70;99.90
9107;DHT22;4589;48.690;8.952;2023-07-29T19:13:56;17.70;99.90
9107;DHT22;4589;48.690;8.952;2023-07-29T19:16:22;17.60;99.90
9107;DHT22;4589;48.690;8.952;2023-07-29T19:18:48;17.60;99.90
9107;DHT22;4589;48.690;8.952;2023-07-29T19:21:15;17.70;99.90
9107;DHT22;4589;48.690;8.952;2023-07-29T19:23:42;17.70;99.90
9107;DHT22;4589;48.690;8.952;2023-07-29T19:28:33;17.70;99.90
9107;DHT22;4589;48.690;8.952;2023-07-29T19:30:59;17.60;99.90
9107;DHT22;4589;48.690;8.952;2023-07-29T19:33:26;17.60;99.90
9107;DHT22;4589;48.690;8.952;2023-07-29T19:35:55;17.60;99.90
9107;DHT22;4589;48.690;8.952;2023-07-29T19:38:21;17.60;99.90
9107;DHT22;4589;48.690;8.952;2023-07-29T19:40:47;17.50;99.90
9107;DHT22;4589;48.690;8.952;2023-07-29T19:43:13;17.50;99.90
9107;DHT22;4589;48.690;8.952;2023-07-29T19:45:47;17.50;99.90
9107;DHT22;4589;48.690;8.952;2023-07-29T19:50:39;17.50;99.90
9107;DHT22;4589;48.690;8.952;2023-07-29T19:57:56;17.40;99.90
9107;DHT22;4589;48.690;8.952;2023-07-29T20:02:48;17.40;99.90
9107;DHT22;4589;48.690;8.952;2023-07-29T20:05:14;17.40;99.90
9107;DHT22;4589;48.690;8.952;2023-07-29T20:07:39;17.30;99.90
9107;DHT22;4589;48.690;8.952;2023-07-29T20:10:06;17.30;99.90
9107;DHT22;4589;48.690;8.952;2023-07-29T20:14:58;17.30;99.90
9107;DHT22;4589;48.690;8.952;2023-07-29T20:17:28;17.20;99.90
9107;DHT22;4589;48.690;8.952;2023-07-29T20:22:20;17.20;99.90
9107;DHT22;4589;48.690;8.952;2023-07-29T20:24:46;17.10;99.90
9107;DHT22;4589;48.690;8.952;2023-07-29T20:27:11;17.10;99.90
9107;DHT22;4589;48.690;8.952;2023-07-29T20:29:37;17.10;99.90
9107;DHT22;4589;48.690;8.952;2023-07-29T20:32:03;17.10;99.90
9107;DHT22;4589;48.690;8.952;2023-07-29T20:34:29;17.10;99.90
9107;DHT22;4589;48.690;8.952;2023-07-29T20:36:55;17.10;99.90
9107;DHT22;4589;48.690;8.952;2023-07-29T20:39:21;17.00;99.90
9107;DHT22;4589;48.690;8.952;2023-07-29T20:41:46;17.00;99.90
9107;DHT22;4589;48.690;8.952;2023-07-29T20:44:12;17.00;99.90
9107;DHT22;4589;48.690;8.952;2023-07-29T20:46:38;17.00;99.90
9107;DHT22;4589;48.690;8.952;2023-07-29T20:49:03;16.90;99.90
9107;DHT22;4589;48.690;8.952;2023-07-29T20:53:55;16.90;99.90
9107;DHT22;4589;48.690;8.952;2023-07-29T20:58:47;16.90;99.90
9107;DHT22;4589;48.690;8.952;2023-07-29T21:01:13;16.90;99.90
9107;DHT22;4589;48.690;8.952;2023-07-29T21:03:38;16.90;99.90
9107;DHT22;4589;48.690;8.952;2023-07-29T21:06:04;16.80;99.90
9107;DHT22;4589;48.690;8.952;2023-07-29T21:08:30;16.80;99.90
9107;DHT22;4589;48.690;8.952;2023-07-29T21:10:55;16.80;99.90
9107;DHT22;4589;48.690;8.952;2023-07-29T21:13:21;16.90;99.90
9107;DHT22;4589;48.690;8.952;2023-07-29T21:15:55;16.90;99.90
9107;DHT22;4589;48.690;8.952;2023-07-29T21:18:21;17.00;99.90
9107;DHT22;4589;48.690;8.952;2023-07-29T21:20:47;16.90;99.90
9107;DHT22;4589;48.690;8.952;2023-07-29T21:23:13;16.90;99.90
9107;DHT22;4589;48.690;8.952;2023-07-29T21:25:39;17.00;99.90
9107;DHT22;4589;48.690;8.952;2023-07-29T21:30:32;17.10;99.90
9107;DHT22;4589;48.690;8.952;2023-07-29T21:32:58;17.00;99.90
9107;DHT22;4589;48.690;8.952;2023-07-29T21:35:24;17.00;99.90
9107;DHT22;4589;48.690;8.952;2023-07-29T21:37:49;17.00;99.90
9107;DHT22;4589;48.690;8.952;2023-07-29T21:45:11;17.00;99.90
9107;DHT22;4589;48.690;8.952;2023-07-29T21:47:36;17.00;99.90
9107;DHT22;4589;48.690;8.952;2023-07-29T21:50:03;17.00;99.90
9107;DHT22;4589;48.690;8.952;2023-07-29T21:52:32;17.00;99.90
9107;DHT22;4589;48.690;8.952;2023-07-29T21:54:57;17.00;99.90
9107;DHT22;4589;48.690;8.952;2023-07-29T21:57:23;17.00;99.90
9107;DHT22;4589;48.690;8.952;2023-07-29T21:59:49;17.00;99.90
9107;DHT22;4589;48.690;8.952;2023-07-29T22:02:15;17.00;99.90